sensor_id;sensor_type;location;lat;lon;timestamp;pressure;altitude;pressure_sealevel;temperature;humidity
6829;BME280;17930;48.592;8.868;2023-06-01T00:02:00;96908.66;;;13.41;100.00
6829;BME280;17930;48.592;8.868;2023-06-01T00:04:27;96908.06;;;13.44;100.00
6829;BME280;17930;48.592;8.868;2023-06-01T00:06:55;96911.13;;;13.33;100.00
6829;BME280;17930;48.592;8.868;2023-06-01T00:09:21;96908.09;;;13.26;100.00
6829;BME280;17930;48.592;8.868;2023-06-01T00:11:48;96905.56;;;13.21;100.00
6829;BME280;17930;48.592;8.868;2023-06-01T00:14:15;96911.94;;;13.15;100.00
6829;BME280;17930;48.592;8.868;2023-06-01T00:16:41;96910.56;;;13.18;100.00
6829;BME280;17930;48.592;8.868;2023-06-01T00:19:10;96899.53;;;13.21;100.00
6829;BME280;17930;48.592;8.868;2023-06-01T00:21:37;96913.91;;;13.23;100.00
6829;BME280;17930;48.592;8.868;2023-06-01T00:24:06;96901.44;;;13.33;100.00
6829;BME280;17930;48.592;8.868;2023-06-01T00:26:33;96899.78;;;13.37;100.00
6829;BME280;17930;48.592;8.868;2023-06-01T00:29:00;96907.59;;;13.42;100.00
6829;BME280;17930;48.592;8.868;2023-06-01T00:31:27;96906.38;;;13.53;100.00
6829;BME280;17930;48.592;8.868;2023-06-01T00:33:54;96904.34;;;13.50;100.00
6829;BME280;17930;48.592;8.868;2023-06-01T00:36:21;96900.44;;;13.48;100.00
6829;BME280;17930;48.592;8.868;2023-06-01T00:38:47;96906.16;;;13.50;100.00
6829;BME280;17930;48.592;8.868;2023-06-01T00:41:15;96903.91;;;13.43;100.00
6829;BME280;17930;48.592;8.868;2023-06-01T00:43:42;96895.47;;;13.46;100.00
6829;BME280;17930;48.592;8.868;2023-06-01T00:46:09;96900.78;;;13.41;100.00
6829;BME280;17930;48.592;8.868;2023-06-01T00:48:37;96901.06;;;13.40;100.00
6829;BME280;17930;48.592;8.868;2023-06-01T00:51:04;96906.03;;;13.23;100.00
6829;BME280;17930;48.592;8.868;2023-06-01T00:53:31;96900.94;;;13.13;100.00
6829;BME280;17930;48.592;8.868;2023-06-01T00:55:58;96901.88;;;13.04;100.00
6829;BME280;17930;48.592;8.868;2023-06-01T00:58:26;96897.91;;;13.06;100.00
6829;BME280;17930;48.592;8.868;2023-06-01T01:00:53;96902.38;;;13.06;100.00
6829;BME280;17930;48.592;8.868;2023-06-01T01:03:20;96897.94;;;12.83;100.00
6829;BME280;17930;48.592;8.868;2023-06-01T01:05:55;96899.28;;;12.80;100.00
6829;BME280;17930;48.592;8.868;2023-06-01T01:08:31;96898.59;;;12.93;100.00
6829;BME280;17930;48.592;8.868;2023-06-01T01:11:06;96898.59;;;12.93;100.00
6829;BME280;17930;48.592;8.868;2023-06-01T01:13:41;96896.94;;;13.02;100.00
6829;BME280;17930;48.592;8.868;2023-06-01T01:16:17;96905.59;;;12.98;100.00
6829;BME280;17930;48.592;8.868;2023-06-01T01:18:50;96901.25;;;12.70;100.00
6829;BME280;17930;48.592;8.868;2023-06-01T01:21:21;96904.16;;;12.45;100.00
6829;BME280;17930;48.592;8.868;2023-06-01T01:24:15;96899.53;;;12.14;100.00
6829;BME280;17930;48.592;8.868;2023-06-01T01:26:56;96907.16;;;12.11;100.00
6829;BME280;17930;48.592;8.868;2023-06-01T01:29:31;96904.88;;;12.27;100.00
6829;BME280;17930;48.592;8.868;2023-06-01T01:32:00;96908.31;;;12.46;100.00
6829;BME280;17930;48.592;8.868;2023-06-01T01:34:27;96907.59;;;12.41;100.00
6829;BME280;17930;48.592;8.868;2023-06-01T01:36:55;96904.22;;;12.40;100.00
6829;BME280;17930;48.592;8.868;2023-06-01T01:39:22;96901.59;;;12.40;100.00
6829;BME280;17930;48.592;8.868;2023-06-01T01:41:48;96907.78;;;12.26;100.00
6829;BME280;17930;48.592;8.868;2023-06-01T01:44:16;96904.88;;;12.27;100.00
6829;BME280;17930;48.592;8.868;2023-06-01T01:46:52;96905.00;;;12.18;100.00
6829;BME280;17930;48.592;8.868;2023-06-01T01:49:25;96909.31;;;12.04;100.00
6829;BME280;17930;48.592;8.868;2023-06-01T01:51:56;96907.72;;;11.79;100.00
6829;BME280;17930;48.592;8.868;2023-06-01T01:54:25;96908.88;;;11.64;100.00
6829;BME280;17930;48.592;8.868;2023-06-01T01:56:53;96902.84;;;11.68;100.00
6829;BME280;17930;48.592;8.868;2023-06-01T01:59:24;96901.19;;;11.77;100.00
6829;BME280;17930;48.592;8.868;2023-06-01T02:01:53;96892.34;;;11.73;100.00
6829;BME280;17930;48.592;8.868;2023-06-01T02:04:21;96890.84;;;11.67;100.00
6829;BME280;17930;48.592;8.868;2023-06-01T02:06:48;96897.75;;;11.81;100.00
6829;BME280;17930;48.592;8.868;2023-06-01T02:09:14;96894.09;;;11.82;100.00
6829;BME280;17930;48.592;8.868;2023-06-01T02:11:41;96901.50;;;11.99;100.00
6829;BME280;17930;48.592;8.868;2023-06-01T02:14:09;96888.59;;;12.07;100.00
6829;BME280;17930;48.592;8.868;2023-06-01T02:16:36;96886.63;;;12.23;100.00
6829;BME280;17930;48.592;8.868;2023-06-01T02:19:04;96889.72;;;12.25;100.00
6829;BME280;17930;48.592;8.868;2023-06-01T02:21:31;96894.53;;;12.18;100.00
6829;BME280;17930;48.592;8.868;2023-06-01T02:23:58;96893.81;;;11.84;100.00
6829;BME280;17930;48.592;8.868;2023-06-01T02:26:29;96895.13;;;11.81;100.00
6829;BME280;17930;48.592;8.868;2023-06-01T02:28:57;96892.81;;;11.80;100.00
6829;BME280;17930;48.592;8.868;2023-06-01T02:31:24;96893.28;;;11.82;100.00
6829;BME280;17930;48.592;8.868;2023-06-01T02:33:50;96886.56;;;11.76;100.00
6829;BME280;17930;48.592;8.868;2023-06-01T02:36:19;96886.09;;;11.69;100.00
6829;BME280;17930;48.592;8.868;2023-06-01T02:38:46;96888.13;;;11.77;100.00
6829;BME280;17930;48.592;8.868;2023-06-01T02:41:13;96878.53;;;11.96;100.00
6829;BME280;17930;48.592;8.868;2023-06-01T02:43:40;96881.16;;;11.96;100.00
6829;BME280;17930;48.592;8.868;2023-06-01T02:46:06;96890.28;;;11.98;100.00
6829;BME280;17930;48.592;8.868;2023-06-01T02:48:33;96875.97;;;11.91;100.00
6829;BME280;17930;48.592;8.868;2023-06-01T02:51:00;96878.59;;;11.91;100.00
6829;BME280;17930;48.592;8.868;2023-06-01T02:53:28;96876.97;;;11.95;100.00
6829;BME280;17930;48.592;8.868;2023-06-01T02:55:55;96877.50;;;11.97;100.00
6829;BME280;17930;48.592;8.868;2023-06-01T02:58:22;96882.09;;;12.05;100.00
6829;BME280;17930;48.592;8.868;2023-06-01T03:00:49;96880.66;;;11.94;100.00
6829;BME280;17930;48.592;8.868;2023-06-01T03:03:16;96878.44;;;12.06;100.00
6829;BME280;17930;48.592;8.868;2023-06-01T03:05:44;96885.88;;;11.94;100.00
6829;BME280;17930;48.592;8.868;2023-06-01T03:08:13;96882.25;;;11.90;100.00
6829;BME280;17930;48.592;8.868;2023-06-01T03:10:43;96883.56;;;11.87;100.00
6829;BME280;17930;48.592;8.868;2023-06-01T03:13:10;96874.13;;;11.91;100.00
6829;BME280;17930;48.592;8.868;2023-06-01T03:15:37;96879.25;;;12.01;100.00
6829;BME280;17930;48.592;8.868;2023-06-01T03:18:04;96880.94;;;11.92;100.00
6829;BME280;17930;48.592;8.868;2023-06-01T03:20:32;96879.38;;;11.91;100.00
6829;BME280;17930;48.592;8.868;2023-06-01T03:22:59;96871.75;;;11.95;100.00
6829;BME280;17930;48.592;8.868;2023-06-01T03:25:26;96888.72;;;11.97;100.00
6829;BME280;17930;48.592;8.868;2023-06-01T03:27:55;96878.16;;;12.07;100.00
6829;BME280;17930;48.592;8.868;2023-06-01T03:30:21;96884.78;;;12.00;100.00
6829;BME280;17930;48.592;8.868;2023-06-01T03:32:48;96882.47;;;11.93;100.00
6829;BME280;17930;48.592;8.868;2023-06-01T03:35:15;96885.88;;;11.94;100.00
6829;BME280;17930;48.592;8.868;2023-06-01T03:37:43;96885.91;;;11.89;100.00
6829;BME280;17930;48.592;8.868;2023-06-01T03:40:10;96878.34;;;11.87;100.00
6829;BME280;17930;48.592;8.868;2023-06-01T03:42:37;96889.22;;;11.71;100.00
6829;BME280;17930;48.592;8.868;2023-06-01T03:45:07;96891.75;;;11.53;100.00
6829;BME280;17930;48.592;8.868;2023-06-01T03:47:34;96894.69;;;11.41;100.00
6829;BME280;17930;48.592;8.868;2023-06-01T03:50:01;96896.34;;;11.23;100.00
6829;BME280;17930;48.592;8.868;2023-06-01T03:52:28;96900.59;;;11.14;100.00
6829;BME280;17930;48.592;8.868;2023-06-01T03:54:54;96911.41;;;11.35;100.00
6829;BME280;17930;48.592;8.868;2023-06-01T03:57:22;96904.81;;;11.48;100.00
6829;BME280;17930;48.592;8.868;2023-06-01T03:59:48;96910.84;;;11.48;100.00
6829;BME280;17930;48.592;8.868;2023-06-01T04:02:17;96908.19;;;11.53;100.00
6829;BME280;17930;48.592;8.868;2023-06-01T04:04:45;96902.88;;;11.63;100.00
6829;BME280;17930;48.592;8.868;2023-06-01T04:07:12;96912.69;;;11.76;100.00
6829;BME280;17930;48.592;8.868;2023-06-01T04:09:44;96907.47;;;11.76;100.00
6829;BME280;17930;48.592;8.868;2023-06-01T04:12:12;96906.63;;;11.80;100.00
6829;BME280;17930;48.592;8.868;2023-06-01T04:14:39;96901.13;;;11.82;100.00
6829;BME280;17930;48.592;8.868;2023-06-01T04:17:06;96910.13;;;11.71;100.00
6829;BME280;17930;48.592;8.868;2023-06-01T04:19:35;96909.03;;;11.77;100.00
6829;BME280;17930;48.592;8.868;2023-06-01T04:22:01;96914.25;;;11.77;100.00
6829;BME280;17930;48.592;8.868;2023-06-01T04:24:28;96912.97;;;11.75;100.00
6829;BME280;17930;48.592;8.868;2023-06-01T04:26:55;96911.47;;;11.69;100.00
6829;BME280;17930;48.592;8.868;2023-06-01T04:29:24;96912.78;;;11.66;100.00
6829;BME280;17930;48.592;8.868;2023-06-01T04:31:51;96916.72;;;11.92;100.00
6829;BME280;17930;48.592;8.868;2023-06-01T04:34:20;96918.28;;;11.93;100.00
6829;BME280;17930;48.592;8.868;2023-06-01T04:36:50;96922.47;;;11.94;100.00
6829;BME280;17930;48.592;8.868;2023-06-01T04:39:17;96927.28;;;12.10;100.00
6829;BME280;17930;48.592;8.868;2023-06-01T04:41:44;96927.91;;;12.26;100.00
6829;BME280;17930;48.592;8.868;2023-06-01T04:44:12;96927.13;;;12.25;100.00
6829;BME280;17930;48.592;8.868;2023-06-01T04:46:38;96924.84;;;12.19;100.00
6829;BME280;17930;48.592;8.868;2023-06-01T04:49:06;96928.19;;;12.24;100.00
6829;BME280;17930;48.592;8.868;2023-06-01T04:51:33;96923.19;;;12.27;100.00
6829;BME280;17930;48.592;8.868;2023-06-01T04:54:03;96921.09;;;12.25;100.00
6829;BME280;17930;48.592;8.868;2023-06-01T04:56:30;96932.25;;;12.35;100.00
6829;BME280;17930;48.592;8.868;2023-06-01T04:58:57;96931.59;;;12.48;100.00
6829;BME280;17930;48.592;8.868;2023-06-01T05:01:25;96933.25;;;12.62;100.00
6829;BME280;17930;48.592;8.868;2023-06-01T05:03:55;96932.13;;;12.68;100.00
6829;BME280;17930;48.592;8.868;2023-06-01T05:06:22;96929.91;;;12.80;100.00
6829;BME280;17930;48.592;8.868;2023-06-01T05:08:50;96927.78;;;12.82;100.00
6829;BME280;17930;48.592;8.868;2023-06-01T05:11:18;96928.56;;;12.82;100.00
6829;BME280;17930;48.592;8.868;2023-06-01T05:13:46;96929.59;;;12.86;100.00
6829;BME280;17930;48.592;8.868;2023-06-01T05:16:13;96927.91;;;12.95;100.00
6829;BME280;17930;48.592;8.868;2023-06-01T05:18:40;96931.88;;;13.11;100.00
6829;BME280;17930;48.592;8.868;2023-06-01T05:21:07;96922.25;;;13.25;100.00
6829;BME280;17930;48.592;8.868;2023-06-01T05:23:34;96923.31;;;13.42;100.00
6829;BME280;17930;48.592;8.868;2023-06-01T05:26:01;96921.44;;;13.61;100.00
6829;BME280;17930;48.592;8.868;2023-06-01T05:28:30;96917.13;;;13.70;100.00
6829;BME280;17930;48.592;8.868;2023-06-01T05:30:59;96917.75;;;13.94;100.00
6829;BME280;17930;48.592;8.868;2023-06-01T05:33:27;96904.72;;;14.21;100.00
6829;BME280;17930;48.592;8.868;2023-06-01T05:35:54;96912.09;;;14.19;100.00
6829;BME280;17930;48.592;8.868;2023-06-01T05:38:20;96909.19;;;14.33;100.00
6829;BME280;17930;48.592;8.868;2023-06-01T05:40:47;96914.66;;;14.50;100.00
6829;BME280;17930;48.592;8.868;2023-06-01T05:43:18;96910.00;;;14.61;100.00
6829;BME280;17930;48.592;8.868;2023-06-01T05:45:46;96916.41;;;14.68;100.00
6829;BME280;17930;48.592;8.868;2023-06-01T05:48:14;96908.78;;;14.80;100.00
6829;BME280;17930;48.592;8.868;2023-06-01T05:50:40;96917.16;;;14.95;100.00
6829;BME280;17930;48.592;8.868;2023-06-01T05:53:07;96915.56;;;15.08;100.00
6829;BME280;17930;48.592;8.868;2023-06-01T05:55:34;96919.44;;;15.24;100.00
6829;BME280;17930;48.592;8.868;2023-06-01T05:58:01;96901.31;;;15.36;100.00
6829;BME280;17930;48.592;8.868;2023-06-01T06:00:27;96913.66;;;15.48;100.00
6829;BME280;17930;48.592;8.868;2023-06-01T06:02:56;96912.81;;;15.61;100.00
6829;BME280;17930;48.592;8.868;2023-06-01T06:05:22;96917.69;;;15.76;100.00
6829;BME280;17930;48.592;8.868;2023-06-01T06:07:49;96920.28;;;15.89;100.00
6829;BME280;17930;48.592;8.868;2023-06-01T06:10:16;96918.16;;;16.00;100.00
6829;BME280;17930;48.592;8.868;2023-06-01T06:12:43;96917.25;;;16.26;100.00
6829;BME280;17930;48.592;8.868;2023-06-01T06:15:10;96911.69;;;16.66;100.00
6829;BME280;17930;48.592;8.868;2023-06-01T06:17:37;96915.13;;;16.75;100.00
6829;BME280;17930;48.592;8.868;2023-06-01T06:20:06;96909.44;;;17.07;100.00
6829;BME280;17930;48.592;8.868;2023-06-01T06:22:33;96910.06;;;16.95;100.00
6829;BME280;17930;48.592;8.868;2023-06-01T06:25:00;96906.81;;;16.98;100.00
6829;BME280;17930;48.592;8.868;2023-06-01T06:27:27;96908.66;;;16.98;100.00
6829;BME280;17930;48.592;8.868;2023-06-01T06:29:53;96905.88;;;17.11;100.00
6829;BME280;17930;48.592;8.868;2023-06-01T06:32:20;96907.47;;;17.21;100.00
6829;BME280;17930;48.592;8.868;2023-06-01T06:34:48;96900.34;;;17.30;100.00
6829;BME280;17930;48.592;8.868;2023-06-01T06:37:16;96908.72;;;17.32;100.00
6829;BME280;17930;48.592;8.868;2023-06-01T06:39:44;96904.22;;;17.66;100.00
6829;BME280;17930;48.592;8.868;2023-06-01T06:42:10;96906.38;;;17.81;100.00
6829;BME280;17930;48.592;8.868;2023-06-01T06:44:37;96899.38;;;17.93;100.00
6829;BME280;17930;48.592;8.868;2023-06-01T06:47:05;96899.31;;;18.27;100.00
6829;BME280;17930;48.592;8.868;2023-06-01T06:49:32;96897.69;;;18.43;100.00
6829;BME280;17930;48.592;8.868;2023-06-01T06:51:58;96899.91;;;18.69;100.00
6829;BME280;17930;48.592;8.868;2023-06-01T06:54:27;96899.88;;;18.98;100.00
6829;BME280;17930;48.592;8.868;2023-06-01T06:56:53;96898.53;;;19.41;100.00
6829;BME280;17930;48.592;8.868;2023-06-01T06:59:20;96880.84;;;20.18;100.00
6829;BME280;17930;48.592;8.868;2023-06-01T07:01:47;96890.38;;;20.55;100.00
6829;BME280;17930;48.592;8.868;2023-06-01T07:04:14;96891.50;;;21.01;100.00
6829;BME280;17930;48.592;8.868;2023-06-01T07:06:40;96884.75;;;21.43;98.98
6829;BME280;17930;48.592;8.868;2023-06-01T07:09:08;96884.72;;;22.09;95.75
6829;BME280;17930;48.592;8.868;2023-06-01T07:11:36;96888.53;;;23.00;89.88
6829;BME280;17930;48.592;8.868;2023-06-01T07:14:02;96885.53;;;22.86;86.78
6829;BME280;17930;48.592;8.868;2023-06-01T07:16:29;96888.56;;;23.19;83.10
6829;BME280;17930;48.592;8.868;2023-06-01T07:18:56;96882.88;;;22.71;84.08
6829;BME280;17930;48.592;8.868;2023-06-01T07:21:23;96889.06;;;22.90;83.34
6829;BME280;17930;48.592;8.868;2023-06-01T07:23:50;96883.72;;;23.06;84.28
6829;BME280;17930;48.592;8.868;2023-06-01T07:26:16;96879.34;;;24.29;79.58
6829;BME280;17930;48.592;8.868;2023-06-01T07:28:45;96870.03;;;24.61;75.50
6829;BME280;17930;48.592;8.868;2023-06-01T07:31:11;96877.94;;;25.31;74.09
6829;BME280;17930;48.592;8.868;2023-06-01T07:33:38;96866.78;;;25.84;73.04
6829;BME280;17930;48.592;8.868;2023-06-01T07:36:06;96863.38;;;26.24;71.04
6829;BME280;17930;48.592;8.868;2023-06-01T07:38:33;96863.31;;;26.60;69.13
6829;BME280;17930;48.592;8.868;2023-06-01T07:41:00;96864.34;;;26.05;69.69
6829;BME280;17930;48.592;8.868;2023-06-01T07:43:26;96859.72;;;26.88;69.01
6829;BME280;17930;48.592;8.868;2023-06-01T07:45:55;96855.91;;;26.89;66.85
6829;BME280;17930;48.592;8.868;2023-06-01T07:48:22;96859.38;;;26.43;68.17
6829;BME280;17930;48.592;8.868;2023-06-01T07:50:49;96860.47;;;26.85;66.94
6829;BME280;17930;48.592;8.868;2023-06-01T07:53:17;96860.81;;;27.41;65.69
6829;BME280;17930;48.592;8.868;2023-06-01T07:55:45;96867.69;;;26.82;66.03
6829;BME280;17930;48.592;8.868;2023-06-01T07:58:14;96862.75;;;26.87;66.59
6829;BME280;17930;48.592;8.868;2023-06-01T08:00:41;96866.28;;;26.91;67.49
6829;BME280;17930;48.592;8.868;2023-06-01T08:03:09;96851.06;;;27.93;65.00
6829;BME280;17930;48.592;8.868;2023-06-01T08:05:36;96856.47;;;28.07;66.21
6829;BME280;17930;48.592;8.868;2023-06-01T08:08:03;96868.03;;;28.46;64.32
6829;BME280;17930;48.592;8.868;2023-06-01T08:10:30;96863.81;;;28.14;64.15
6829;BME280;17930;48.592;8.868;2023-06-01T08:12:57;96867.56;;;27.95;63.86
6829;BME280;17930;48.592;8.868;2023-06-01T08:15:24;96857.53;;;27.79;64.67
6829;BME280;17930;48.592;8.868;2023-06-01T08:17:53;96855.19;;;26.96;65.09
6829;BME280;17930;48.592;8.868;2023-06-01T08:20:21;96863.03;;;27.29;66.84
6829;BME280;17930;48.592;8.868;2023-06-01T08:22:49;96849.63;;;28.41;64.24
6829;BME280;17930;48.592;8.868;2023-06-01T08:25:17;96854.88;;;27.92;63.67
6829;BME280;17930;48.592;8.868;2023-06-01T08:27:44;96858.00;;;28.08;65.88
6829;BME280;17930;48.592;8.868;2023-06-01T08:30:11;96850.41;;;28.83;63.47
6829;BME280;17930;48.592;8.868;2023-06-01T08:32:38;96847.88;;;29.68;62.12
6829;BME280;17930;48.592;8.868;2023-06-01T08:35:06;96845.13;;;29.89;60.81
6829;BME280;17930;48.592;8.868;2023-06-01T08:37:35;96854.22;;;28.93;60.48
6829;BME280;17930;48.592;8.868;2023-06-01T08:40:02;96854.22;;;28.99;63.57
6829;BME280;17930;48.592;8.868;2023-06-01T08:42:35;96842.56;;;30.80;61.77
6829;BME280;17930;48.592;8.868;2023-06-01T08:45:06;96831.72;;;32.42;58.89
6829;BME280;17930;48.592;8.868;2023-06-01T08:47:33;96844.66;;;31.72;56.64
6829;BME280;17930;48.592;8.868;2023-06-01T08:50:02;96839.50;;;31.18;56.96
6829;BME280;17930;48.592;8.868;2023-06-01T08:52:29;96839.00;;;29.75;58.31
6829;BME280;17930;48.592;8.868;2023-06-01T08:54:59;96839.66;;;31.04;57.61
6829;BME280;17930;48.592;8.868;2023-06-01T08:57:27;96839.84;;;31.57;56.06
6829;BME280;17930;48.592;8.868;2023-06-01T08:59:54;96837.78;;;32.23;54.85
6829;BME280;17930;48.592;8.868;2023-06-01T09:02:21;96835.31;;;31.80;54.95
6829;BME280;17930;48.592;8.868;2023-06-01T09:04:48;96831.41;;;32.63;55.62
6829;BME280;17930;48.592;8.868;2023-06-01T09:07:16;96831.03;;;31.53;53.08
6829;BME280;17930;48.592;8.868;2023-06-01T09:09:43;96827.63;;;31.78;56.40
6829;BME280;17930;48.592;8.868;2023-06-01T09:12:20;96825.88;;;32.93;52.64
6829;BME280;17930;48.592;8.868;2023-06-01T09:14:49;96831.66;;;31.63;53.17
6829;BME280;17930;48.592;8.868;2023-06-01T09:17:21;96832.41;;;31.67;55.75
6829;BME280;17930;48.592;8.868;2023-06-01T09:19:53;96838.06;;;32.06;54.12
6829;BME280;17930;48.592;8.868;2023-06-01T09:22:19;96831.88;;;31.09;54.51
6829;BME280;17930;48.592;8.868;2023-06-01T09:24:55;96827.50;;;31.85;54.32
6829;BME280;17930;48.592;8.868;2023-06-01T09:27:24;96829.03;;;32.42;53.39
6829;BME280;17930;48.592;8.868;2023-06-01T09:29:53;96836.06;;;31.80;54.20
6829;BME280;17930;48.592;8.868;2023-06-01T09:32:20;96829.94;;;31.13;53.62
6829;BME280;17930;48.592;8.868;2023-06-01T09:34:47;96827.81;;;32.20;55.75
6829;BME280;17930;48.592;8.868;2023-06-01T09:37:14;96818.97;;;33.30;50.42
6829;BME280;17930;48.592;8.868;2023-06-01T09:39:40;96809.47;;;33.03;50.45
6829;BME280;17930;48.592;8.868;2023-06-01T09:42:09;96805.72;;;33.74;48.30
6829;BME280;17930;48.592;8.868;2023-06-01T09:44:38;96807.59;;;34.92;44.79
6829;BME280;17930;48.592;8.868;2023-06-01T09:47:07;96803.41;;;35.47;47.46
6829;BME280;17930;48.592;8.868;2023-06-01T09:49:37;96802.41;;;36.19;43.63
6829;BME280;17930;48.592;8.868;2023-06-01T09:52:09;96799.66;;;36.44;42.92
6829;BME280;17930;48.592;8.868;2023-06-01T09:54:39;96791.31;;;35.48;44.28
6829;BME280;17930;48.592;8.868;2023-06-01T09:57:07;96793.75;;;32.26;48.00
6829;BME280;17930;48.592;8.868;2023-06-01T09:59:40;96792.38;;;33.45;48.08
6829;BME280;17930;48.592;8.868;2023-06-01T10:02:11;96801.91;;;33.72;46.74
6829;BME280;17930;48.592;8.868;2023-06-01T10:04:40;96794.19;;;31.99;48.27
6829;BME280;17930;48.592;8.868;2023-06-01T10:07:07;96795.72;;;32.00;48.80
6829;BME280;17930;48.592;8.868;2023-06-01T10:09:37;96790.94;;;33.02;48.64
6829;BME280;17930;48.592;8.868;2023-06-01T10:12:06;96795.13;;;33.25;46.91
6829;BME280;17930;48.592;8.868;2023-06-01T10:14:35;96800.22;;;33.01;46.17
6829;BME280;17930;48.592;8.868;2023-06-01T10:17:04;96784.91;;;34.70;46.53
6829;BME280;17930;48.592;8.868;2023-06-01T10:19:31;96781.38;;;33.55;46.75
6829;BME280;17930;48.592;8.868;2023-06-01T10:21:58;96796.22;;;32.40;48.57
6829;BME280;17930;48.592;8.868;2023-06-01T10:24:26;96787.59;;;31.07;49.53
6829;BME280;17930;48.592;8.868;2023-06-01T10:26:59;96784.97;;;31.93;49.37
6829;BME280;17930;48.592;8.868;2023-06-01T10:29:29;96779.56;;;34.03;48.46
6829;BME280;17930;48.592;8.868;2023-06-01T10:31:56;96781.19;;;35.89;45.91
6829;BME280;17930;48.592;8.868;2023-06-01T10:34:39;96769.88;;;36.87;43.26
6829;BME280;17930;48.592;8.868;2023-06-01T10:37:12;96763.56;;;36.06;44.22
6829;BME280;17930;48.592;8.868;2023-06-01T10:39:39;96772.09;;;35.15;42.33
6829;BME280;17930;48.592;8.868;2023-06-01T10:45:36;96768.78;;;36.26;40.47
6829;BME280;17930;48.592;8.868;2023-06-01T10:48:04;96764.31;;;36.32;40.42
6829;BME280;17930;48.592;8.868;2023-06-01T10:50:34;96769.69;;;35.98;40.22
6829;BME280;17930;48.592;8.868;2023-06-01T10:53:24;96763.06;;;35.05;40.63
6829;BME280;17930;48.592;8.868;2023-06-01T10:56:17;96762.75;;;35.16;40.13
6829;BME280;17930;48.592;8.868;2023-06-01T10:58:44;96762.81;;;36.06;40.43
6829;BME280;17930;48.592;8.868;2023-06-01T11:01:18;96760.75;;;36.68;37.94
6829;BME280;17930;48.592;8.868;2023-06-01T11:03:46;96768.69;;;36.29;38.52
6829;BME280;17930;48.592;8.868;2023-06-01T11:06:25;96756.28;;;36.16;39.02
6829;BME280;17930;48.592;8.868;2023-06-01T11:08:56;96753.00;;;33.24;40.67
6829;BME280;17930;48.592;8.868;2023-06-01T11:11:56;96749.31;;;34.68;40.55
6829;BME280;17930;48.592;8.868;2023-06-01T11:14:24;96752.13;;;34.49;40.36
6829;BME280;17930;48.592;8.868;2023-06-01T11:16:52;96755.06;;;35.67;40.71
6829;BME280;17930;48.592;8.868;2023-06-01T11:19:20;96753.03;;;36.79;38.78
6829;BME280;17930;48.592;8.868;2023-06-01T11:21:55;96752.59;;;36.68;38.83
6829;BME280;17930;48.592;8.868;2023-06-01T11:24:31;96741.72;;;37.23;37.73
6829;BME280;17930;48.592;8.868;2023-06-01T11:27:00;96735.19;;;38.68;37.34
6829;BME280;17930;48.592;8.868;2023-06-01T11:29:32;96737.25;;;37.90;36.37
6829;BME280;17930;48.592;8.868;2023-06-01T11:32:01;96738.97;;;37.66;37.96
6829;BME280;17930;48.592;8.868;2023-06-01T11:34:32;96741.03;;;36.77;37.49
6829;BME280;17930;48.592;8.868;2023-06-01T11:37:01;96739.78;;;37.24;36.54
6829;BME280;17930;48.592;8.868;2023-06-01T11:39:29;96732.72;;;36.59;37.30
6829;BME280;17930;48.592;8.868;2023-06-01T11:42:04;96730.88;;;36.89;35.76
6829;BME280;17930;48.592;8.868;2023-06-01T11:44:32;96716.81;;;35.99;38.90
6829;BME280;17930;48.592;8.868;2023-06-01T11:47:00;96719.72;;;36.75;36.86
6829;BME280;17930;48.592;8.868;2023-06-01T11:49:27;96713.91;;;37.58;38.64
6829;BME280;17930;48.592;8.868;2023-06-01T11:51:55;96719.03;;;37.26;37.73
6829;BME280;17930;48.592;8.868;2023-06-01T11:54:26;96717.69;;;36.88;36.63
6829;BME280;17930;48.592;8.868;2023-06-01T11:56:55;96721.81;;;35.63;36.55
6829;BME280;17930;48.592;8.868;2023-06-01T11:59:22;96713.25;;;35.89;37.56
6829;BME280;17930;48.592;8.868;2023-06-01T12:01:49;96716.53;;;37.62;37.07
6829;BME280;17930;48.592;8.868;2023-06-01T12:04:19;96711.81;;;39.03;36.09
6829;BME280;17930;48.592;8.868;2023-06-01T12:06:46;96707.22;;;39.27;36.29
6829;BME280;17930;48.592;8.868;2023-06-01T12:09:15;96707.13;;;38.77;35.68
6829;BME280;17930;48.592;8.868;2023-06-01T12:11:44;96708.03;;;39.77;35.65
6829;BME280;17930;48.592;8.868;2023-06-01T12:14:11;96708.19;;;39.15;34.08
6829;BME280;17930;48.592;8.868;2023-06-01T12:16:51;96707.75;;;37.37;34.46
6829;BME280;17930;48.592;8.868;2023-06-01T12:19:18;96705.28;;;37.60;36.07
6829;BME280;17930;48.592;8.868;2023-06-01T12:21:47;96692.72;;;38.94;36.06
6829;BME280;17930;48.592;8.868;2023-06-01T12:24:14;96691.19;;;38.48;34.88
6829;BME280;17930;48.592;8.868;2023-06-01T12:26:41;96696.22;;;38.59;33.92
6829;BME280;17930;48.592;8.868;2023-06-01T12:29:10;96687.53;;;38.87;34.50
6829;BME280;17930;48.592;8.868;2023-06-01T12:31:37;96687.28;;;38.58;34.46
6829;BME280;17930;48.592;8.868;2023-06-01T12:34:15;96691.69;;;40.24;34.27
6829;BME280;17930;48.592;8.868;2023-06-01T12:36:41;96688.75;;;38.42;33.66
6829;BME280;17930;48.592;8.868;2023-06-01T12:39:08;96684.69;;;36.19;36.13
6829;BME280;17930;48.592;8.868;2023-06-01T12:41:36;96691.00;;;36.95;35.98
6829;BME280;17930;48.592;8.868;2023-06-01T12:44:03;96675.41;;;37.47;35.73
6829;BME280;17930;48.592;8.868;2023-06-01T12:46:31;96678.88;;;35.95;36.22
6829;BME280;17930;48.592;8.868;2023-06-01T12:49:14;96674.66;;;35.04;37.41
6829;BME280;17930;48.592;8.868;2023-06-01T12:51:42;96668.56;;;35.53;36.97
6829;BME280;17930;48.592;8.868;2023-06-01T12:54:08;96663.50;;;36.81;36.87
6829;BME280;17930;48.592;8.868;2023-06-01T12:56:35;96666.00;;;36.21;38.11
6829;BME280;17930;48.592;8.868;2023-06-01T12:59:02;96666.06;;;36.97;36.83
6829;BME280;17930;48.592;8.868;2023-06-01T13:01:29;96660.28;;;36.40;37.02
6829;BME280;17930;48.592;8.868;2023-06-01T13:03:57;96661.19;;;35.91;37.72
6829;BME280;17930;48.592;8.868;2023-06-01T13:06:24;96669.03;;;36.35;36.81
6829;BME280;17930;48.592;8.868;2023-06-01T13:08:51;96664.00;;;35.63;36.99
6829;BME280;17930;48.592;8.868;2023-06-01T13:11:18;96657.47;;;34.54;37.84
6829;BME280;17930;48.592;8.868;2023-06-01T13:13:45;96660.38;;;35.78;37.20
6829;BME280;17930;48.592;8.868;2023-06-01T13:16:13;96655.91;;;36.76;36.53